Ken Boothe Sr — WDG3360 — position and weather

sailwx.info

Track history (hours):
 
Tides and Currents Weather Stations Pressure Air Temp Water Temp Dewpoint Dewpoint Depression Visibility Wind Speed Wind Dir Waves Ship Positions

Ken Boothe Sr

Owner: AMERICAN STEAMSHIP COMPANY, WILLIAMSVILLE, NY. More information available from US FCC via Universal Licensing System and Coast Guard Vessel Documentation Center.

Last reported at 2014-Dec-19 09:25 UTC. Time now 2014-Dec-21 15:08 UTC.
Position N 45°52' W 083°48'.

Length 30 m; draft 6 m.

Type: Towing. MMSI: 367525230.

Date/timePositionNaut miles runAvg speedWind from/ knotsBaromVisibWave heightAir tempDewpointWater temp
2014-Dec-19 09:25N 45°52' W 083°48'2210.3
2014-Dec-19 07:16N 46°11' W 084°06'  
2014-Dec-16 20:23N 45°56' W 083°53'  
2014-Dec-14 05:06N 45°12' W 083°05'4411.6
2014-Dec-14 01:16N 45°48' W 083°43'912.0
2014-Dec-14 00:33N 45°54' W 083°51'1510.2
2014-Dec-13 23:08N 46°07' W 084°01'32 4.7
2014-Dec-13 16:22N 46°29' W 084°35'1011.4
2014-Dec-13 15:31N 46°36' W 084°44'1111.7
2014-Dec-13 14:33N 46°46' W 084°54'1211.1
2014-Dec-13 13:29N 46°52' W 085°08'1111.9
2014-Dec-13 12:32N 46°50' W 085°25'2512.1
2014-Dec-13 10:25N 46°47' W 086°01'57 1.4
2014-Dec-11 17:19N 46°34' W 087°22'0 0.1
2014-Dec-11 16:33N 46°34' W 087°22'0 0.1
2014-Dec-11 15:33N 46°34' W 087°22'0 0.1
2014-Dec-11 13:33N 46°34' W 087°21'7 5.1
2014-Dec-11 12:15N 46°35' W 087°12'810.9
2014-Dec-11 11:33N 46°37' W 087°01'1210.8
2014-Dec-11 10:25N 46°39' W 086°44'910.8
2014-Dec-11 09:33N 46°41' W 086°30'1110.8
2014-Dec-11 08:33N 46°44' W 086°15'2511.0
2014-Dec-11 06:17N 46°47' W 085°39'1311.1
2014-Dec-11 05:08N 46°48' W 085°21'810.9
2014-Dec-11 04:24N 46°49' W 085°09'910.5
2014-Dec-11 03:33N 46°47' W 084°56'39 6.5
2014-Dec-10 21:33N 46°22' W 084°13'27 8.5
2014-Dec-10 18:24N 45°59' W 083°53'  
Track history (hours):
 
Tides and Currents Weather Stations Pressure Air Temp Water Temp Dewpoint Dewpoint Depression Visibility Wind Speed Wind Dir Waves Ship Positions

Ken Boothe Sr

Owner: AMERICAN STEAMSHIP COMPANY, WILLIAMSVILLE, NY. More information available from US FCC via Universal Licensing System and Coast Guard Vessel Documentation Center.

Last reported at 2014-Dec-19 09:25 UTC. Time now 2014-Dec-21 15:08 UTC.
Position N 45°52' W 083°48'.

Length 30 m; draft 6 m.

Type: Towing. MMSI: 367525230.

Date/timePositionNaut miles runAvg speedWind from/ knotsBaromVisibWave heightAir tempDewpointWater temp
2014-Dec-19 09:25N 45°52' W 083°48'2210.3
2014-Dec-19 07:16N 46°11' W 084°06'  
2014-Dec-16 20:23N 45°56' W 083°53'  
2014-Dec-14 05:06N 45°12' W 083°05'4411.6
2014-Dec-14 01:16N 45°48' W 083°43'912.0
2014-Dec-14 00:33N 45°54' W 083°51'1510.2
2014-Dec-13 23:08N 46°07' W 084°01'32 4.7
2014-Dec-13 16:22N 46°29' W 084°35'1011.4
2014-Dec-13 15:31N 46°36' W 084°44'1111.7
2014-Dec-13 14:33N 46°46' W 084°54'1211.1
2014-Dec-13 13:29N 46°52' W 085°08'1111.9
2014-Dec-13 12:32N 46°50' W 085°25'2512.1
2014-Dec-13 10:25N 46°47' W 086°01'57 1.4
2014-Dec-11 17:19N 46°34' W 087°22'0 0.1
2014-Dec-11 16:33N 46°34' W 087°22'0 0.1
2014-Dec-11 15:33N 46°34' W 087°22'0 0.1
2014-Dec-11 13:33N 46°34' W 087°21'7 5.1
2014-Dec-11 12:15N 46°35' W 087°12'810.9
2014-Dec-11 11:33N 46°37' W 087°01'1210.8
2014-Dec-11 10:25N 46°39' W 086°44'910.8
2014-Dec-11 09:33N 46°41' W 086°30'1110.8
2014-Dec-11 08:33N 46°44' W 086°15'2511.0
2014-Dec-11 06:17N 46°47' W 085°39'1311.1
2014-Dec-11 05:08N 46°48' W 085°21'810.9
2014-Dec-11 04:24N 46°49' W 085°09'910.5
2014-Dec-11 03:33N 46°47' W 084°56'39 6.5
2014-Dec-10 21:33N 46°22' W 084°13'27 8.5
2014-Dec-10 18:24N 45°59' W 083°53'  

Dump ship's entire track history